オスロ の空港の天気 - METARとTAF

オスロ空港 ( ENGM / OSL ) - ノルウェー アーケシュフース県オスロ
飛行場実況気象(Metar)
観測時間11/30 17:20 CET (11/30 16:20 UTC)
風向・風速北北東 1m/s
視程10km以上
天気現象
少しの雲 雲底高度 300m
全天を覆う雲 雲底高度 730m
気温1℃
湿度86%
気圧1032hPa
METARENGM 301620Z 02002KT 9999 FEW010 OVC024 01/M01 Q1032 TEMPO BKN012
過去の天気等 Google飛行場航空写真 Wunderground天気予報

過去48時間のMETAR

飛行場予報(TAF)
発表時間: -
30日15時 CET ~ 1日7時 CET に一時的に
視程2000m
天気現象もや
全天の8割程度の雲 雲底高度 90m
1日7時 CET ~ 1日13時 CET に一時的に
全天を覆う雲 雲底高度 180m
TAF ENGM 3012/0112 02005KT 9999 -SN SCT008 BKN012
TEMPO 3014/0106 2000 BR BKN003
TEMPO 0106/0112 OVC006